jueves, 30 de abril de 2015

CALBUCO | Nueva Erupción

Una nueva erupción del volcán Calbuco, puede suspender los vuelos a Bariloche, Chapelco y Neuquén. Por el momento estan todos operando con normalidad.

Toda la información sobre la trayectoria de la pluma y los informes MET, los voy a publicar en el blog aquí: Actividad volcánica

Aeropuerto BARILOCHE
30 - 18:00 METAR SAZS 301800Z 27004KT 9999 VCVA NSC 13/M08 Q1016 RERMK VA LEVEL SFC CONCENTRATION 0,000004 GRAMS/ CUBIC METER =

No hay comentarios.:

Publicar un comentario